sensor_id;sensor_type;location;lat;lon;timestamp;temperature;humidity
53962;DHT22;39868;53.398;6.564;2023-11-22T00:01:59;8.40;88.70
53962;DHT22;39868;53.398;6.564;2023-11-22T00:04:27;8.30;88.60
53962;DHT22;39868;53.398;6.564;2023-11-22T00:06:54;8.40;88.70
53962;DHT22;39868;53.398;6.564;2023-11-22T00:09:21;8.40;88.70
53962;DHT22;39868;53.398;6.564;2023-11-22T00:11:49;8.40;88.70
53962;DHT22;39868;53.398;6.564;2023-11-22T00:14:16;8.40;88.70
53962;DHT22;39868;53.398;6.564;2023-11-22T00:16:44;8.40;88.70
53962;DHT22;39868;53.398;6.564;2023-11-22T00:19:11;8.40;88.70
53962;DHT22;39868;53.398;6.564;2023-11-22T00:21:38;8.40;89.30
53962;DHT22;39868;53.398;6.564;2023-11-22T00:24:05;8.40;88.70
53962;DHT22;39868;53.398;6.564;2023-11-22T00:26:32;8.40;88.70
53962;DHT22;39868;53.398;6.564;2023-11-22T00:29:01;8.40;88.70
53962;DHT22;39868;53.398;6.564;2023-11-22T00:31:28;8.40;88.70
53962;DHT22;39868;53.398;6.564;2023-11-22T00:33:56;8.40;88.70
53962;DHT22;39868;53.398;6.564;2023-11-22T00:36:23;8.40;88.70
53962;DHT22;39868;53.398;6.564;2023-11-22T00:38:51;8.40;88.70
53962;DHT22;39868;53.398;6.564;2023-11-22T00:41:18;8.40;88.60
53962;DHT22;39868;53.398;6.564;2023-11-22T00:43:45;8.40;88.70
53962;DHT22;39868;53.398;6.564;2023-11-22T00:46:13;8.40;88.60
53962;DHT22;39868;53.398;6.564;2023-11-22T00:48:40;8.40;88.60
53962;DHT22;39868;53.398;6.564;2023-11-22T00:51:07;8.30;88.60
53962;DHT22;39868;53.398;6.564;2023-11-22T00:53:37;8.30;88.60
53962;DHT22;39868;53.398;6.564;2023-11-22T00:56:04;8.30;88.60
53962;DHT22;39868;53.398;6.564;2023-11-22T00:58:33;8.30;88.60
53962;DHT22;39868;53.398;6.564;2023-11-22T01:01:00;8.30;88.60
53962;DHT22;39868;53.398;6.564;2023-11-22T01:03:27;8.30;88.60
53962;DHT22;39868;53.398;6.564;2023-11-22T01:05:54;8.30;88.60
53962;DHT22;39868;53.398;6.564;2023-11-22T01:08:22;8.30;88.50
53962;DHT22;39868;53.398;6.564;2023-11-22T01:10:49;8.20;88.40
53962;DHT22;39868;53.398;6.564;2023-11-22T01:13:17;8.20;88.40
53962;DHT22;39868;53.398;6.564;2023-11-22T01:15:44;8.10;88.30
53962;DHT22;39868;53.398;6.564;2023-11-22T01:18:12;8.10;88.30
53962;DHT22;39868;53.398;6.564;2023-11-22T01:20:39;8.10;88.30
53962;DHT22;39868;53.398;6.564;2023-11-22T01:23:06;8.00;88.20
53962;DHT22;39868;53.398;6.564;2023-11-22T01:25:33;7.90;88.10
53962;DHT22;39868;53.398;6.564;2023-11-22T01:28:01;7.90;88.20
53962;DHT22;39868;53.398;6.564;2023-11-22T01:30:28;7.90;88.20
53962;DHT22;39868;53.398;6.564;2023-11-22T01:32:55;7.80;88.10
53962;DHT22;39868;53.398;6.564;2023-11-22T01:35:22;7.80;88.10
53962;DHT22;39868;53.398;6.564;2023-11-22T01:37:50;7.70;88.10
53962;DHT22;39868;53.398;6.564;2023-11-22T01:40:17;7.70;88.20
53962;DHT22;39868;53.398;6.564;2023-11-22T01:42:46;7.60;88.10
53962;DHT22;39868;53.398;6.564;2023-11-22T01:45:14;7.60;88.10
53962;DHT22;39868;53.398;6.564;2023-11-22T01:47:42;7.50;88.00
53962;DHT22;39868;53.398;6.564;2023-11-22T01:50:10;7.50;88.10
53962;DHT22;39868;53.398;6.564;2023-11-22T01:52:38;7.60;88.20
53962;DHT22;39868;53.398;6.564;2023-11-22T01:55:06;7.40;88.00
53962;DHT22;39868;53.398;6.564;2023-11-22T01:57:33;7.40;88.10
53962;DHT22;39868;53.398;6.564;2023-11-22T02:00:04;7.40;88.10
53962;DHT22;39868;53.398;6.564;2023-11-22T02:02:38;7.30;88.00
53962;DHT22;39868;53.398;6.564;2023-11-22T02:05:08;7.30;88.00
53962;DHT22;39868;53.398;6.564;2023-11-22T02:07:36;7.20;88.00
53962;DHT22;39868;53.398;6.564;2023-11-22T02:10:03;7.20;88.10
53962;DHT22;39868;53.398;6.564;2023-11-22T02:12:34;7.20;88.10
53962;DHT22;39868;53.398;6.564;2023-11-22T02:15:03;7.20;88.10
53962;DHT22;39868;53.398;6.564;2023-11-22T02:17:30;7.10;88.00
53962;DHT22;39868;53.398;6.564;2023-11-22T02:19:57;7.10;88.10
53962;DHT22;39868;53.398;6.564;2023-11-22T02:22:25;7.10;88.10
53962;DHT22;39868;53.398;6.564;2023-11-22T02:24:52;7.00;88.10
53962;DHT22;39868;53.398;6.564;2023-11-22T02:27:19;7.00;88.10
53962;DHT22;39868;53.398;6.564;2023-11-22T02:29:46;7.00;88.20
53962;DHT22;39868;53.398;6.564;2023-11-22T02:32:13;7.00;88.10
53962;DHT22;39868;53.398;6.564;2023-11-22T02:34:40;7.00;88.10
53962;DHT22;39868;53.398;6.564;2023-11-22T02:37:07;6.90;88.10
53962;DHT22;39868;53.398;6.564;2023-11-22T02:39:47;6.90;88.10
53962;DHT22;39868;53.398;6.564;2023-11-22T02:42:17;6.80;88.00
53962;DHT22;39868;53.398;6.564;2023-11-22T02:44:45;6.80;88.10
53962;DHT22;39868;53.398;6.564;2023-11-22T02:47:12;6.80;88.10
53962;DHT22;39868;53.398;6.564;2023-11-22T02:49:39;6.80;88.10
53962;DHT22;39868;53.398;6.564;2023-11-22T02:52:06;6.80;88.20
53962;DHT22;39868;53.398;6.564;2023-11-22T02:54:33;6.80;88.20
53962;DHT22;39868;53.398;6.564;2023-11-22T02:57:01;6.70;88.10
53962;DHT22;39868;53.398;6.564;2023-11-22T02:59:28;6.70;88.10
53962;DHT22;39868;53.398;6.564;2023-11-22T03:01:55;6.70;88.10
53962;DHT22;39868;53.398;6.564;2023-11-22T03:04:23;6.70;88.10
53962;DHT22;39868;53.398;6.564;2023-11-22T03:06:50;6.60;88.00
53962;DHT22;39868;53.398;6.564;2023-11-22T03:09:17;6.60;88.00
53962;DHT22;39868;53.398;6.564;2023-11-22T03:11:44;6.60;88.00
53962;DHT22;39868;53.398;6.564;2023-11-22T03:14:12;6.50;88.00
53962;DHT22;39868;53.398;6.564;2023-11-22T03:16:39;6.50;88.00
53962;DHT22;39868;53.398;6.564;2023-11-22T03:19:07;6.50;88.00
53962;DHT22;39868;53.398;6.564;2023-11-22T03:21:34;6.50;88.00
53962;DHT22;39868;53.398;6.564;2023-11-22T03:24:02;6.50;88.00
53962;DHT22;39868;53.398;6.564;2023-11-22T03:26:32;6.40;87.90
53962;DHT22;39868;53.398;6.564;2023-11-22T03:29:01;6.40;88.00
53962;DHT22;39868;53.398;6.564;2023-11-22T03:31:28;6.40;88.00
53962;DHT22;39868;53.398;6.564;2023-11-22T03:33:56;6.40;88.00
53962;DHT22;39868;53.398;6.564;2023-11-22T03:36:24;6.40;88.00
53962;DHT22;39868;53.398;6.564;2023-11-22T03:38:51;6.30;88.00
53962;DHT22;39868;53.398;6.564;2023-11-22T03:41:18;6.30;88.10
53962;DHT22;39868;53.398;6.564;2023-11-22T03:43:45;6.30;88.10
53962;DHT22;39868;53.398;6.564;2023-11-22T03:46:13;6.30;88.20
53962;DHT22;39868;53.398;6.564;2023-11-22T03:48:40;6.30;88.10
53962;DHT22;39868;53.398;6.564;2023-11-22T03:51:08;6.30;88.10
53962;DHT22;39868;53.398;6.564;2023-11-22T03:53:35;6.30;88.10
53962;DHT22;39868;53.398;6.564;2023-11-22T03:56:02;6.30;88.10
53962;DHT22;39868;53.398;6.564;2023-11-22T03:58:29;6.30;88.10
53962;DHT22;39868;53.398;6.564;2023-11-22T04:00:56;6.20;88.00
53962;DHT22;39868;53.398;6.564;2023-11-22T04:03:28;6.20;88.00
53962;DHT22;39868;53.398;6.564;2023-11-22T04:05:55;6.20;88.00
53962;DHT22;39868;53.398;6.564;2023-11-22T04:08:22;6.20;88.00
53962;DHT22;39868;53.398;6.564;2023-11-22T04:10:49;6.20;88.00
53962;DHT22;39868;53.398;6.564;2023-11-22T04:13:17;6.20;88.10
53962;DHT22;39868;53.398;6.564;2023-11-22T04:15:44;6.10;88.00
53962;DHT22;39868;53.398;6.564;2023-11-22T04:18:12;6.10;88.60
53962;DHT22;39868;53.398;6.564;2023-11-22T04:20:39;6.10;88.00
53962;DHT22;39868;53.398;6.564;2023-11-22T04:23:07;6.10;88.00
53962;DHT22;39868;53.398;6.564;2023-11-22T04:25:34;6.10;88.00
53962;DHT22;39868;53.398;6.564;2023-11-22T04:28:02;6.10;88.00
53962;DHT22;39868;53.398;6.564;2023-11-22T04:30:29;6.00;88.00
53962;DHT22;39868;53.398;6.564;2023-11-22T04:32:56;6.00;88.00
53962;DHT22;39868;53.398;6.564;2023-11-22T04:35:23;6.00;88.00
53962;DHT22;39868;53.398;6.564;2023-11-22T04:37:50;6.00;88.00
53962;DHT22;39868;53.398;6.564;2023-11-22T04:40:17;6.00;88.00
53962;DHT22;39868;53.398;6.564;2023-11-22T04:42:44;5.90;87.90
53962;DHT22;39868;53.398;6.564;2023-11-22T04:45:11;5.90;87.90
53962;DHT22;39868;53.398;6.564;2023-11-22T04:47:39;5.90;88.00
53962;DHT22;39868;53.398;6.564;2023-11-22T04:50:07;5.90;88.00
53962;DHT22;39868;53.398;6.564;2023-11-22T04:52:34;5.90;88.00
53962;DHT22;39868;53.398;6.564;2023-11-22T04:55:01;5.80;87.90
53962;DHT22;39868;53.398;6.564;2023-11-22T04:57:28;5.80;88.00
53962;DHT22;39868;53.398;6.564;2023-11-22T04:59:56;5.80;88.00
53962;DHT22;39868;53.398;6.564;2023-11-22T05:02:23;5.80;88.00
53962;DHT22;39868;53.398;6.564;2023-11-22T05:04:50;5.70;88.00
53962;DHT22;39868;53.398;6.564;2023-11-22T05:07:19;5.70;88.00
53962;DHT22;39868;53.398;6.564;2023-11-22T05:09:46;5.70;88.00
53962;DHT22;39868;53.398;6.564;2023-11-22T05:12:13;5.70;88.00
53962;DHT22;39868;53.398;6.564;2023-11-22T05:14:41;5.70;88.10
53962;DHT22;39868;53.398;6.564;2023-11-22T05:17:10;5.70;88.10
53962;DHT22;39868;53.398;6.564;2023-11-22T05:19:38;5.70;88.10
53962;DHT22;39868;53.398;6.564;2023-11-22T05:22:05;5.70;88.10
53962;DHT22;39868;53.398;6.564;2023-11-22T05:24:32;5.60;88.00
53962;DHT22;39868;53.398;6.564;2023-11-22T05:27:01;5.60;88.00
53962;DHT22;39868;53.398;6.564;2023-11-22T05:29:29;5.60;88.10
53962;DHT22;39868;53.398;6.564;2023-11-22T05:32:08;5.60;88.10
53962;DHT22;39868;53.398;6.564;2023-11-22T05:34:35;5.60;88.10
53962;DHT22;39868;53.398;6.564;2023-11-22T05:37:02;5.60;88.10
53962;DHT22;39868;53.398;6.564;2023-11-22T05:39:29;5.60;88.10
53962;DHT22;39868;53.398;6.564;2023-11-22T05:41:57;5.60;88.20
53962;DHT22;39868;53.398;6.564;2023-11-22T05:44:24;5.60;88.20
53962;DHT22;39868;53.398;6.564;2023-11-22T05:46:52;5.60;88.20
53962;DHT22;39868;53.398;6.564;2023-11-22T05:49:21;5.60;88.20
53962;DHT22;39868;53.398;6.564;2023-11-22T05:51:48;5.60;88.80
53962;DHT22;39868;53.398;6.564;2023-11-22T05:54:15;5.60;88.20
53962;DHT22;39868;53.398;6.564;2023-11-22T05:56:43;5.60;88.20
53962;DHT22;39868;53.398;6.564;2023-11-22T05:59:10;5.50;88.20
53962;DHT22;39868;53.398;6.564;2023-11-22T06:01:37;5.60;88.20
53962;DHT22;39868;53.398;6.564;2023-11-22T06:04:04;5.50;88.20
53962;DHT22;39868;53.398;6.564;2023-11-22T06:06:32;5.60;88.20
53962;DHT22;39868;53.398;6.564;2023-11-22T06:08:59;5.50;88.20
53962;DHT22;39868;53.398;6.564;2023-11-22T06:11:27;5.50;88.20
53962;DHT22;39868;53.398;6.564;2023-11-22T06:13:54;5.50;88.20
53962;DHT22;39868;53.398;6.564;2023-11-22T06:16:21;5.50;88.20
53962;DHT22;39868;53.398;6.564;2023-11-22T06:18:48;5.50;88.20
53962;DHT22;39868;53.398;6.564;2023-11-22T06:21:15;5.50;88.20
53962;DHT22;39868;53.398;6.564;2023-11-22T06:23:42;5.50;88.20
53962;DHT22;39868;53.398;6.564;2023-11-22T06:26:09;5.50;88.20
53962;DHT22;39868;53.398;6.564;2023-11-22T06:28:37;5.50;88.20
53962;DHT22;39868;53.398;6.564;2023-11-22T06:31:04;5.50;88.20
53962;DHT22;39868;53.398;6.564;2023-11-22T06:33:31;5.50;88.20
53962;DHT22;39868;53.398;6.564;2023-11-22T06:35:58;5.50;88.30
53962;DHT22;39868;53.398;6.564;2023-11-22T06:38:25;5.50;88.20
53962;DHT22;39868;53.398;6.564;2023-11-22T06:40:52;5.50;88.20
53962;DHT22;39868;53.398;6.564;2023-11-22T06:43:19;5.50;88.20
53962;DHT22;39868;53.398;6.564;2023-11-22T06:45:46;5.50;88.30
53962;DHT22;39868;53.398;6.564;2023-11-22T06:48:13;5.50;88.30
53962;DHT22;39868;53.398;6.564;2023-11-22T06:50:41;5.50;88.30
53962;DHT22;39868;53.398;6.564;2023-11-22T06:53:09;5.50;88.30
53962;DHT22;39868;53.398;6.564;2023-11-22T06:55:36;5.50;88.60
53962;DHT22;39868;53.398;6.564;2023-11-22T06:58:04;5.50;88.30
53962;DHT22;39868;53.398;6.564;2023-11-22T07:00:33;5.50;88.20
53962;DHT22;39868;53.398;6.564;2023-11-22T07:03:00;5.50;88.30
53962;DHT22;39868;53.398;6.564;2023-11-22T07:05:28;5.50;88.10
53962;DHT22;39868;53.398;6.564;2023-11-22T07:07:57;5.50;88.10
53962;DHT22;39868;53.398;6.564;2023-11-22T07:10:24;5.50;88.10
53962;DHT22;39868;53.398;6.564;2023-11-22T07:12:51;5.40;88.10
53962;DHT22;39868;53.398;6.564;2023-11-22T07:15:18;5.40;88.10
53962;DHT22;39868;53.398;6.564;2023-11-22T07:17:46;5.40;88.10
53962;DHT22;39868;53.398;6.564;2023-11-22T07:20:13;5.40;88.10
53962;DHT22;39868;53.398;6.564;2023-11-22T07:22:43;5.40;88.10
53962;DHT22;39868;53.398;6.564;2023-11-22T07:25:11;5.40;88.10
53962;DHT22;39868;53.398;6.564;2023-11-22T07:27:47;5.40;88.20
53962;DHT22;39868;53.398;6.564;2023-11-22T07:30:14;5.40;88.20
53962;DHT22;39868;53.398;6.564;2023-11-22T07:32:43;5.40;88.30
53962;DHT22;39868;53.398;6.564;2023-11-22T07:35:11;5.40;88.20
53962;DHT22;39868;53.398;6.564;2023-11-22T07:37:42;5.40;88.30
53962;DHT22;39868;53.398;6.564;2023-11-22T07:40:09;5.50;88.30
53962;DHT22;39868;53.398;6.564;2023-11-22T07:42:38;5.50;88.30
53962;DHT22;39868;53.398;6.564;2023-11-22T07:45:06;5.50;88.40
53962;DHT22;39868;53.398;6.564;2023-11-22T07:47:33;5.50;88.40
53962;DHT22;39868;53.398;6.564;2023-11-22T07:50:00;5.50;88.40
53962;DHT22;39868;53.398;6.564;2023-11-22T07:52:30;5.60;88.50
53962;DHT22;39868;53.398;6.564;2023-11-22T07:54:57;5.60;88.50
53962;DHT22;39868;53.398;6.564;2023-11-22T07:57:24;5.60;88.50
53962;DHT22;39868;53.398;6.564;2023-11-22T07:59:52;5.60;88.50
53962;DHT22;39868;53.398;6.564;2023-11-22T08:02:24;5.70;88.60
53962;DHT22;39868;53.398;6.564;2023-11-22T08:05:00;5.70;88.60
53962;DHT22;39868;53.398;6.564;2023-11-22T08:07:30;5.70;88.60
53962;DHT22;39868;53.398;6.564;2023-11-22T08:09:59;5.80;88.60
53962;DHT22;39868;53.398;6.564;2023-11-22T08:12:36;5.80;88.60
53962;DHT22;39868;53.398;6.564;2023-11-22T08:15:04;5.80;88.60
53962;DHT22;39868;53.398;6.564;2023-11-22T08:17:34;5.80;88.60
53962;DHT22;39868;53.398;6.564;2023-11-22T08:20:03;5.80;88.50
53962;DHT22;39868;53.398;6.564;2023-11-22T08:22:37;5.90;88.60
53962;DHT22;39868;53.398;6.564;2023-11-22T08:25:06;5.90;88.60
53962;DHT22;39868;53.398;6.564;2023-11-22T08:27:35;5.90;88.60
53962;DHT22;39868;53.398;6.564;2023-11-22T08:30:02;5.90;88.60
53962;DHT22;39868;53.398;6.564;2023-11-22T08:32:32;5.90;88.60
53962;DHT22;39868;53.398;6.564;2023-11-22T08:35:00;5.90;88.60
53962;DHT22;39868;53.398;6.564;2023-11-22T08:37:28;6.00;88.60
53962;DHT22;39868;53.398;6.564;2023-11-22T08:39:55;6.00;88.60
53962;DHT22;39868;53.398;6.564;2023-11-22T08:42:22;6.00;88.60
53962;DHT22;39868;53.398;6.564;2023-11-22T08:44:50;6.00;88.60
53962;DHT22;39868;53.398;6.564;2023-11-22T08:47:17;6.10;88.60
53962;DHT22;39868;53.398;6.564;2023-11-22T08:49:44;6.10;88.60
53962;DHT22;39868;53.398;6.564;2023-11-22T08:52:11;6.10;88.70
53962;DHT22;39868;53.398;6.564;2023-11-22T08:54:40;6.20;88.80
53962;DHT22;39868;53.398;6.564;2023-11-22T08:57:08;6.20;88.80
53962;DHT22;39868;53.398;6.564;2023-11-22T08:59:36;6.20;88.80
53962;DHT22;39868;53.398;6.564;2023-11-22T09:02:05;6.30;88.80
53962;DHT22;39868;53.398;6.564;2023-11-22T09:04:34;6.30;88.80
53962;DHT22;39868;53.398;6.564;2023-11-22T09:07:02;6.30;88.80
53962;DHT22;39868;53.398;6.564;2023-11-22T09:09:29;6.40;88.80
53962;DHT22;39868;53.398;6.564;2023-11-22T09:11:58;6.40;88.80
53962;DHT22;39868;53.398;6.564;2023-11-22T09:14:25;6.50;88.90
53962;DHT22;39868;53.398;6.564;2023-11-22T09:16:52;6.50;88.80
53962;DHT22;39868;53.398;6.564;2023-11-22T09:19:21;6.50;88.90
53962;DHT22;39868;53.398;6.564;2023-11-22T09:21:49;6.60;88.90
53962;DHT22;39868;53.398;6.564;2023-11-22T09:24:16;6.60;88.90
53962;DHT22;39868;53.398;6.564;2023-11-22T09:26:43;6.60;88.90
53962;DHT22;39868;53.398;6.564;2023-11-22T09:29:10;6.60;88.90
53962;DHT22;39868;53.398;6.564;2023-11-22T09:31:41;6.70;88.90
53962;DHT22;39868;53.398;6.564;2023-11-22T09:34:13;6.80;89.00
53962;DHT22;39868;53.398;6.564;2023-11-22T09:36:40;6.80;89.00
53962;DHT22;39868;53.398;6.564;2023-11-22T09:39:07;6.80;88.90
53962;DHT22;39868;53.398;6.564;2023-11-22T09:41:35;6.80;88.90
53962;DHT22;39868;53.398;6.564;2023-11-22T09:44:02;6.90;89.00
53962;DHT22;39868;53.398;6.564;2023-11-22T09:46:31;6.90;88.90
53962;DHT22;39868;53.398;6.564;2023-11-22T09:49:01;7.00;89.00
53962;DHT22;39868;53.398;6.564;2023-11-22T09:51:32;7.00;89.00
53962;DHT22;39868;53.398;6.564;2023-11-22T09:54:03;7.10;89.00
53962;DHT22;39868;53.398;6.564;2023-11-22T09:56:40;7.10;89.00
53962;DHT22;39868;53.398;6.564;2023-11-22T09:59:08;7.20;89.00
53962;DHT22;39868;53.398;6.564;2023-11-22T10:01:38;7.20;89.00
53962;DHT22;39868;53.398;6.564;2023-11-22T10:04:05;7.20;89.00
53962;DHT22;39868;53.398;6.564;2023-11-22T10:06:33;7.20;88.90
53962;DHT22;39868;53.398;6.564;2023-11-22T10:09:02;7.30;89.00
53962;DHT22;39868;53.398;6.564;2023-11-22T10:11:35;7.30;89.00
53962;DHT22;39868;53.398;6.564;2023-11-22T10:14:05;7.30;89.00
53962;DHT22;39868;53.398;6.564;2023-11-22T10:16:32;7.40;89.00
53962;DHT22;39868;53.398;6.564;2023-11-22T10:18:59;7.40;89.00
53962;DHT22;39868;53.398;6.564;2023-11-22T10:21:29;7.40;88.90
53962;DHT22;39868;53.398;6.564;2023-11-22T10:24:00;7.50;89.00
53962;DHT22;39868;53.398;6.564;2023-11-22T10:26:29;7.50;88.90
53962;DHT22;39868;53.398;6.564;2023-11-22T10:28:57;7.60;89.00
53962;DHT22;39868;53.398;6.564;2023-11-22T10:31:24;7.60;88.90
53962;DHT22;39868;53.398;6.564;2023-11-22T10:33:52;7.60;88.90
53962;DHT22;39868;53.398;6.564;2023-11-22T10:36:21;7.70;88.90
53962;DHT22;39868;53.398;6.564;2023-11-22T10:38:48;7.70;88.80
53962;DHT22;39868;53.398;6.564;2023-11-22T10:41:16;7.80;88.90
53962;DHT22;39868;53.398;6.564;2023-11-22T10:43:44;7.80;88.80
53962;DHT22;39868;53.398;6.564;2023-11-22T10:46:12;7.80;88.80
53962;DHT22;39868;53.398;6.564;2023-11-22T10:48:40;7.80;88.70
53962;DHT22;39868;53.398;6.564;2023-11-22T10:51:09;7.90;88.70
53962;DHT22;39868;53.398;6.564;2023-11-22T10:53:42;7.90;88.60
53962;DHT22;39868;53.398;6.564;2023-11-22T10:56:17;7.90;88.60
53962;DHT22;39868;53.398;6.564;2023-11-22T10:58:48;7.90;88.60
53962;DHT22;39868;53.398;6.564;2023-11-22T11:01:16;7.90;88.50
53962;DHT22;39868;53.398;6.564;2023-11-22T11:03:45;8.00;88.60
53962;DHT22;39868;53.398;6.564;2023-11-22T11:06:15;8.00;88.60
53962;DHT22;39868;53.398;6.564;2023-11-22T11:08:46;8.00;88.60
53962;DHT22;39868;53.398;6.564;2023-11-22T11:11:14;8.10;88.60
53962;DHT22;39868;53.398;6.564;2023-11-22T11:13:42;8.20;88.70
53962;DHT22;39868;53.398;6.564;2023-11-22T11:16:10;8.20;88.70
53962;DHT22;39868;53.398;6.564;2023-11-22T11:18:37;8.30;88.70
53962;DHT22;39868;53.398;6.564;2023-11-22T11:21:09;8.40;88.80
53962;DHT22;39868;53.398;6.564;2023-11-22T11:23:39;8.40;88.80
53962;DHT22;39868;53.398;6.564;2023-11-22T11:26:14;8.50;88.90
53962;DHT22;39868;53.398;6.564;2023-11-22T11:28:46;8.60;88.80
53962;DHT22;39868;53.398;6.564;2023-11-22T11:31:20;8.60;88.70
53962;DHT22;39868;53.398;6.564;2023-11-22T11:36:24;8.70;88.40
53962;DHT22;39868;53.398;6.564;2023-11-22T11:38:52;8.70;88.30
53962;DHT22;39868;53.398;6.564;2023-11-22T11:41:27;8.80;88.20
53962;DHT22;39868;53.398;6.564;2023-11-22T11:43:55;8.80;88.10
53962;DHT22;39868;53.398;6.564;2023-11-22T11:46:23;8.80;88.00
53962;DHT22;39868;53.398;6.564;2023-11-22T11:48:51;8.80;88.00
53962;DHT22;39868;53.398;6.564;2023-11-22T11:51:22;8.90;87.90
53962;DHT22;39868;53.398;6.564;2023-11-22T11:53:49;8.90;87.80
53962;DHT22;39868;53.398;6.564;2023-11-22T11:56:16;8.80;87.40
53962;DHT22;39868;53.398;6.564;2023-11-22T11:58:45;8.90;87.40
53962;DHT22;39868;53.398;6.564;2023-11-22T12:01:13;8.90;87.10
53962;DHT22;39868;53.398;6.564;2023-11-22T12:03:42;8.90;87.00
53962;DHT22;39868;53.398;6.564;2023-11-22T12:06:09;8.90;87.00
53962;DHT22;39868;53.398;6.564;2023-11-22T12:08:36;8.80;87.40
53962;DHT22;39868;53.398;6.564;2023-11-22T12:11:04;8.80;86.70
53962;DHT22;39868;53.398;6.564;2023-11-22T12:13:33;8.80;86.70
53962;DHT22;39868;53.398;6.564;2023-11-22T12:16:01;8.80;86.80
53962;DHT22;39868;53.398;6.564;2023-11-22T12:18:39;8.80;86.60
53962;DHT22;39868;53.398;6.564;2023-11-22T12:21:06;8.80;86.60
53962;DHT22;39868;53.398;6.564;2023-11-22T12:23:34;8.80;86.60
53962;DHT22;39868;53.398;6.564;2023-11-22T12:26:01;8.80;86.60
53962;DHT22;39868;53.398;6.564;2023-11-22T12:28:29;8.70;86.50
53962;DHT22;39868;53.398;6.564;2023-11-22T12:31:06;8.70;86.50
53962;DHT22;39868;53.398;6.564;2023-11-22T12:33:33;8.70;86.40
53962;DHT22;39868;53.398;6.564;2023-11-22T12:36:01;8.70;86.50
53962;DHT22;39868;53.398;6.564;2023-11-22T12:38:28;8.70;86.40
53962;DHT22;39868;53.398;6.564;2023-11-22T12:40:57;8.70;86.40
53962;DHT22;39868;53.398;6.564;2023-11-22T12:43:24;8.70;86.50
53962;DHT22;39868;53.398;6.564;2023-11-22T12:48:27;8.70;86.40
53962;DHT22;39868;53.398;6.564;2023-11-22T12:50:59;8.70;86.30
53962;DHT22;39868;53.398;6.564;2023-11-22T12:53:26;8.70;86.30
53962;DHT22;39868;53.398;6.564;2023-11-22T12:55:57;8.70;86.20
53962;DHT22;39868;53.398;6.564;2023-11-22T12:58:25;8.70;86.30
53962;DHT22;39868;53.398;6.564;2023-11-22T13:00:52;8.70;86.10
53962;DHT22;39868;53.398;6.564;2023-11-22T13:03:25;8.60;85.90
53962;DHT22;39868;53.398;6.564;2023-11-22T13:05:53;8.60;85.90
53962;DHT22;39868;53.398;6.564;2023-11-22T13:08:20;8.60;85.90
53962;DHT22;39868;53.398;6.564;2023-11-22T13:10:49;8.60;85.80
53962;DHT22;39868;53.398;6.564;2023-11-22T13:13:26;8.60;85.80
53962;DHT22;39868;53.398;6.564;2023-11-22T13:15:55;8.60;85.70
53962;DHT22;39868;53.398;6.564;2023-11-22T13:18:22;8.60;85.70
53962;DHT22;39868;53.398;6.564;2023-11-22T13:20:49;8.50;85.70
53962;DHT22;39868;53.398;6.564;2023-11-22T13:23:17;8.60;85.80
53962;DHT22;39868;53.398;6.564;2023-11-22T13:25:44;8.60;85.80
53962;DHT22;39868;53.398;6.564;2023-11-22T13:28:13;8.50;85.70
53962;DHT22;39868;53.398;6.564;2023-11-22T13:30:43;8.50;86.30
53962;DHT22;39868;53.398;6.564;2023-11-22T13:33:10;8.50;85.70
53962;DHT22;39868;53.398;6.564;2023-11-22T13:35:39;8.50;85.70
53962;DHT22;39868;53.398;6.564;2023-11-22T13:38:06;8.50;85.70
53962;DHT22;39868;53.398;6.564;2023-11-22T13:40:38;8.40;85.70
53962;DHT22;39868;53.398;6.564;2023-11-22T13:43:07;8.50;85.80
53962;DHT22;39868;53.398;6.564;2023-11-22T13:45:37;8.40;85.80
53962;DHT22;39868;53.398;6.564;2023-11-22T13:48:08;8.40;85.80
53962;DHT22;39868;53.398;6.564;2023-11-22T13:50:36;8.50;85.90
53962;DHT22;39868;53.398;6.564;2023-11-22T13:53:04;8.40;85.70
53962;DHT22;39868;53.398;6.564;2023-11-22T13:55:31;8.40;86.30
53962;DHT22;39868;53.398;6.564;2023-11-22T13:57:59;8.40;85.80
53962;DHT22;39868;53.398;6.564;2023-11-22T14:00:27;8.40;85.70
53962;DHT22;39868;53.398;6.564;2023-11-22T14:02:59;8.40;85.70
53962;DHT22;39868;53.398;6.564;2023-11-22T14:05:34;8.40;85.70
53962;DHT22;39868;53.398;6.564;2023-11-22T14:08:03;8.50;85.80
53962;DHT22;39868;53.398;6.564;2023-11-22T14:10:31;8.40;85.70
53962;DHT22;39868;53.398;6.564;2023-11-22T14:12:58;8.40;85.80
53962;DHT22;39868;53.398;6.564;2023-11-22T14:15:27;8.40;85.70
53962;DHT22;39868;53.398;6.564;2023-11-22T14:17:58;8.40;85.70
53962;DHT22;39868;53.398;6.564;2023-11-22T14:20:25;8.40;85.70
53962;DHT22;39868;53.398;6.564;2023-11-22T14:22:52;8.40;85.80
53962;DHT22;39868;53.398;6.564;2023-11-22T14:25:20;8.40;85.80
53962;DHT22;39868;53.398;6.564;2023-11-22T14:27:48;8.40;85.80
53962;DHT22;39868;53.398;6.564;2023-11-22T14:30:21;8.30;85.70
53962;DHT22;39868;53.398;6.564;2023-11-22T14:32:48;8.30;85.80
53962;DHT22;39868;53.398;6.564;2023-11-22T14:35:18;8.30;85.80
53962;DHT22;39868;53.398;6.564;2023-11-22T14:37:46;8.30;85.80
53962;DHT22;39868;53.398;6.564;2023-11-22T14:40:14;8.30;85.80
53962;DHT22;39868;53.398;6.564;2023-11-22T14:42:42;8.30;85.80
53962;DHT22;39868;53.398;6.564;2023-11-22T14:45:09;8.30;85.80
53962;DHT22;39868;53.398;6.564;2023-11-22T14:47:38;8.30;85.80
53962;DHT22;39868;53.398;6.564;2023-11-22T14:50:07;8.30;85.80
53962;DHT22;39868;53.398;6.564;2023-11-22T14:52:38;8.30;85.70
53962;DHT22;39868;53.398;6.564;2023-11-22T14:55:05;8.30;85.70
53962;DHT22;39868;53.398;6.564;2023-11-22T14:57:33;8.30;85.70
53962;DHT22;39868;53.398;6.564;2023-11-22T15:00:00;8.30;85.70
53962;DHT22;39868;53.398;6.564;2023-11-22T15:02:27;8.20;85.60
53962;DHT22;39868;53.398;6.564;2023-11-22T15:04:54;8.20;85.70
53962;DHT22;39868;53.398;6.564;2023-11-22T15:07:21;8.20;85.60
53962;DHT22;39868;53.398;6.564;2023-11-22T15:09:48;8.20;85.60
53962;DHT22;39868;53.398;6.564;2023-11-22T15:12:15;8.20;85.60
53962;DHT22;39868;53.398;6.564;2023-11-22T15:14:42;8.20;85.60
53962;DHT22;39868;53.398;6.564;2023-11-22T15:17:10;8.20;85.60
53962;DHT22;39868;53.398;6.564;2023-11-22T15:19:37;8.20;85.60
53962;DHT22;39868;53.398;6.564;2023-11-22T15:22:05;8.20;85.60
53962;DHT22;39868;53.398;6.564;2023-11-22T15:24:33;8.20;85.60
53962;DHT22;39868;53.398;6.564;2023-11-22T15:27:00;8.20;85.60
53962;DHT22;39868;53.398;6.564;2023-11-22T15:29:27;8.20;85.70
53962;DHT22;39868;53.398;6.564;2023-11-22T15:31:55;8.20;85.80
53962;DHT22;39868;53.398;6.564;2023-11-22T15:34:22;8.20;85.70
53962;DHT22;39868;53.398;6.564;2023-11-22T15:36:49;8.20;85.80
53962;DHT22;39868;53.398;6.564;2023-11-22T15:39:16;8.20;85.70
53962;DHT22;39868;53.398;6.564;2023-11-22T15:41:45;8.20;85.80
53962;DHT22;39868;53.398;6.564;2023-11-22T15:44:12;8.20;85.80
53962;DHT22;39868;53.398;6.564;2023-11-22T15:46:40;8.20;85.80
53962;DHT22;39868;53.398;6.564;2023-11-22T15:49:08;8.20;85.80
53962;DHT22;39868;53.398;6.564;2023-11-22T15:51:36;8.30;85.90
53962;DHT22;39868;53.398;6.564;2023-11-22T15:54:03;8.30;85.90
53962;DHT22;39868;53.398;6.564;2023-11-22T15:56:30;8.30;85.90